Can Yucel — TCA3150 — position and weather

sailwx.info

Track history (hours):
 
Tides and Currents Weather Stations Pressure Air Temp Water Temp Dewpoint Dewpoint Depression Visibility Wind Speed Wind Dir Waves Ship Positions

Can Yucel

Last reported at 2018-Feb-18 19:54 UTC. Time now 2018-Feb-19 00:26 UTC.
Position N 36°04' E 030°24'.

Length 181 m; draft 10.9 m.

Type: Ship. MMSI: 271043840.

Date/timePositionNaut miles runAvg speedWind from/ knotsBaromVisibWave heightAir tempDewpointWater temp
2018-Feb-18 19:54N 36°04' E 030°24'511.9
2018-Feb-18 19:30N 36°04' E 030°30'612.1
2018-Feb-18 19:00N 36°04' E 030°38'611.9
2018-Feb-18 18:30N 36°03' E 030°45'611.3
2018-Feb-18 18:00N 36°03' E 030°52'611.1
2018-Feb-18 17:30N 36°02' E 030°59'610.9
2018-Feb-18 17:00N 36°02' E 031°05'510.8
2018-Feb-18 16:30N 36°01' E 031°12'610.9
2018-Feb-18 16:00N 36°00' E 031°19'511.0
2018-Feb-18 15:30N 35°60' E 031°25'510.9
2018-Feb-18 15:00N 35°59' E 031°32'611.0
2018-Feb-18 14:30N 35°58' E 031°39'  
2018-Feb-09 10:00N 33°07' E 033°04'612.5
2018-Feb-09 09:30N 33°02' E 032°59'612.9
2018-Feb-09 09:00N 32°57' E 032°55'8412.9
2018-Feb-09 02:30N 31°47' E 031°60'1312.6
2018-Feb-09 01:30N 31°38' E 031°49'  
Track history (hours):
 
Tides and Currents Weather Stations Pressure Air Temp Water Temp Dewpoint Dewpoint Depression Visibility Wind Speed Wind Dir Waves Ship Positions

Can Yucel

Last reported at 2018-Feb-18 19:54 UTC. Time now 2018-Feb-19 00:26 UTC.
Position N 36°04' E 030°24'.

Length 181 m; draft 10.9 m.

Type: Ship. MMSI: 271043840.

Date/timePositionNaut miles runAvg speedWind from/ knotsBaromVisibWave heightAir tempDewpointWater temp
2018-Feb-18 19:54N 36°04' E 030°24'511.9
2018-Feb-18 19:30N 36°04' E 030°30'612.1
2018-Feb-18 19:00N 36°04' E 030°38'611.9
2018-Feb-18 18:30N 36°03' E 030°45'611.3
2018-Feb-18 18:00N 36°03' E 030°52'611.1
2018-Feb-18 17:30N 36°02' E 030°59'610.9
2018-Feb-18 17:00N 36°02' E 031°05'510.8
2018-Feb-18 16:30N 36°01' E 031°12'610.9
2018-Feb-18 16:00N 36°00' E 031°19'511.0
2018-Feb-18 15:30N 35°60' E 031°25'510.9
2018-Feb-18 15:00N 35°59' E 031°32'611.0
2018-Feb-18 14:30N 35°58' E 031°39'  
2018-Feb-09 10:00N 33°07' E 033°04'612.5
2018-Feb-09 09:30N 33°02' E 032°59'612.9
2018-Feb-09 09:00N 32°57' E 032°55'8412.9
2018-Feb-09 02:30N 31°47' E 031°60'1312.6
2018-Feb-09 01:30N 31°38' E 031°49'  

Dump ship's entire track history